createdAt,value
2023-04-15T00:02:20.198Z,7.60
2023-04-15T00:04:48.825Z,7.60
2023-04-15T00:07:17.928Z,7.50
2023-04-15T00:09:48.560Z,7.40
2023-04-15T00:12:17.987Z,7.40
2023-04-15T00:14:48.564Z,7.40
2023-04-15T00:17:17.083Z,7.40
2023-04-15T00:19:45.883Z,7.40
2023-04-15T00:22:16.273Z,7.30
2023-04-15T00:24:44.449Z,7.30
2023-04-15T00:27:12.523Z,7.20
2023-04-15T00:29:41.995Z,7.20
2023-04-15T00:32:10.273Z,7.20
2023-04-15T00:34:38.418Z,7.10
2023-04-15T00:37:06.464Z,7.10
2023-04-15T00:39:34.532Z,7.10
2023-04-15T00:42:03.281Z,7.10
2023-04-15T00:44:31.393Z,7.10
2023-04-15T00:47:02.823Z,7.00
2023-04-15T00:49:32.218Z,7.10
2023-04-15T00:52:03.502Z,7.00
2023-04-15T00:54:33.670Z,7.00
2023-04-15T00:57:06.960Z,7.00
2023-04-15T00:59:35.442Z,6.90
2023-04-15T01:02:05.087Z,6.90
2023-04-15T01:04:33.529Z,6.90
2023-04-15T01:07:02.442Z,6.90
2023-04-15T01:09:30.660Z,6.90
2023-04-15T01:12:01.066Z,6.90
2023-04-15T01:14:30.213Z,6.80
2023-04-15T01:16:58.515Z,6.80
2023-04-15T01:19:28.560Z,6.80
2023-04-15T01:21:57.753Z,6.80
2023-04-15T01:24:28.925Z,6.70
2023-04-15T01:26:58.497Z,6.70
2023-04-15T01:29:27.399Z,6.70
2023-04-15T01:31:57.493Z,6.70
2023-04-15T01:34:27.652Z,6.70
2023-04-15T01:36:56.026Z,6.70
2023-04-15T01:39:24.190Z,6.70
2023-04-15T01:41:59.441Z,6.60
2023-04-15T01:44:27.613Z,6.60
2023-04-15T01:46:55.784Z,6.50
2023-04-15T01:49:23.966Z,6.50
2023-04-15T01:51:52.044Z,6.50
2023-04-15T01:54:20.105Z,6.40
2023-04-15T01:56:52.542Z,6.40
2023-04-15T01:59:24.152Z,6.40
2023-04-15T02:01:52.691Z,6.30
2023-04-15T02:04:21.297Z,6.30
2023-04-15T02:06:49.383Z,6.30
2023-04-15T02:09:17.485Z,6.30
2023-04-15T02:11:47.153Z,6.30
2023-04-15T02:14:15.268Z,6.20
2023-04-15T02:16:44.717Z,6.20
2023-04-15T02:19:17.619Z,6.30
2023-04-15T02:21:45.774Z,6.30
2023-04-15T02:24:13.862Z,6.20
2023-04-15T02:26:42.727Z,6.20
2023-04-15T02:29:13.255Z,6.20
2023-04-15T02:31:42.302Z,6.20
2023-04-15T02:34:11.929Z,6.20
2023-04-15T02:36:40.741Z,6.10
2023-04-15T02:39:08.896Z,6.10
2023-04-15T02:41:37.024Z,6.10
2023-04-15T02:44:07.139Z,6.10
2023-04-15T02:46:35.717Z,6.10
2023-04-15T02:49:03.845Z,6.10
2023-04-15T02:51:33.382Z,6.10
2023-04-15T02:54:03.952Z,6.10
2023-04-15T02:56:34.219Z,6.10
2023-04-15T02:59:02.414Z,6.10
2023-04-15T03:01:30.724Z,6.10
2023-04-15T03:03:58.886Z,6.10
2023-04-15T03:06:27.127Z,6.10
2023-04-15T03:09:00.458Z,6.00
2023-04-15T03:11:31.529Z,6.00
2023-04-15T03:13:59.791Z,6.00
2023-04-15T03:16:32.911Z,6.00
2023-04-15T03:19:01.179Z,5.90
2023-04-15T03:21:30.019Z,5.90
2023-04-15T03:24:01.608Z,6.00
2023-04-15T03:26:30.992Z,5.90
2023-04-15T03:29:03.011Z,5.90
2023-04-15T03:31:31.405Z,5.90
2023-04-15T03:33:59.482Z,5.90
2023-04-15T03:36:30.370Z,5.80
2023-04-15T03:38:58.731Z,5.80
2023-04-15T03:41:28.417Z,5.80
2023-04-15T03:43:56.765Z,5.80
2023-04-15T03:46:24.965Z,5.70
2023-04-15T03:48:53.064Z,5.70
2023-04-15T03:51:21.428Z,5.70
2023-04-15T03:53:49.486Z,5.70
2023-04-15T03:56:17.543Z,5.70
2023-04-15T03:58:47.008Z,5.60
2023-04-15T04:01:15.167Z,5.60
2023-04-15T04:03:43.570Z,5.60
2023-04-15T04:06:12.751Z,5.60
2023-04-15T04:08:41.072Z,5.60
2023-04-15T04:11:09.167Z,5.50
2023-04-15T04:13:37.299Z,5.50
2023-04-15T04:16:07.468Z,5.40
2023-04-15T04:18:35.646Z,5.40
2023-04-15T04:21:03.888Z,5.40
2023-04-15T04:23:31.985Z,5.40
2023-04-15T04:26:02.178Z,5.40
2023-04-15T04:28:30.292Z,5.40
2023-04-15T04:30:58.404Z,5.40
2023-04-15T04:33:27.906Z,5.40
2023-04-15T04:35:56.159Z,5.40
2023-04-15T04:38:24.271Z,5.50
2023-04-15T04:40:52.382Z,5.50
2023-04-15T04:43:22.919Z,5.50
2023-04-15T04:45:51.222Z,5.50
2023-04-15T04:48:21.922Z,5.50
2023-04-15T04:50:51.447Z,5.50
2023-04-15T04:53:19.489Z,5.60
2023-04-15T04:55:49.589Z,5.60
2023-04-15T04:58:17.654Z,5.60
2023-04-15T05:00:46.059Z,5.60
2023-04-15T05:03:14.401Z,5.60
2023-04-15T05:05:42.575Z,5.60
2023-04-15T05:08:12.073Z,5.50
2023-04-15T05:10:42.690Z,5.60
2023-04-15T05:13:13.171Z,5.60
2023-04-15T05:15:43.708Z,5.60
2023-04-15T05:18:11.869Z,5.60
2023-04-15T05:20:40.436Z,5.60
2023-04-15T05:23:08.746Z,5.60
2023-04-15T05:25:38.174Z,5.60
2023-04-15T05:28:06.630Z,5.60
2023-04-15T05:30:34.922Z,5.70
2023-04-15T05:33:03.040Z,5.60
2023-04-15T05:35:31.184Z,5.60
2023-04-15T05:37:59.275Z,5.70
2023-04-15T05:40:29.739Z,5.70
2023-04-15T05:42:59.279Z,5.80
2023-04-15T05:45:27.478Z,5.80
2023-04-15T05:47:57.944Z,5.80
2023-04-15T05:50:28.349Z,5.90
2023-04-15T05:52:57.048Z,5.90
2023-04-15T05:55:25.144Z,5.90
2023-04-15T05:57:55.341Z,5.90
2023-04-15T06:00:24.835Z,6.00
2023-04-15T06:02:53.198Z,6.00
2023-04-15T06:05:21.413Z,6.00
2023-04-15T06:07:50.293Z,6.10
2023-04-15T06:10:20.624Z,6.10
2023-04-15T06:12:50.954Z,6.10
2023-04-15T06:15:19.624Z,6.10
2023-04-15T06:17:51.368Z,6.10
2023-04-15T06:20:21.758Z,6.10
2023-04-15T06:22:49.818Z,6.10
2023-04-15T06:25:18.160Z,6.20
2023-04-15T06:27:48.347Z,6.20
2023-04-15T06:30:16.535Z,6.20
2023-04-15T06:32:44.819Z,6.30
2023-04-15T06:35:16.739Z,6.30
2023-04-15T06:37:47.374Z,6.30
2023-04-15T06:40:15.793Z,6.30
2023-04-15T06:42:43.991Z,6.40
2023-04-15T06:45:14.507Z,6.40
2023-04-15T06:47:43.606Z,6.40
2023-04-15T06:50:12.474Z,6.40
2023-04-15T06:52:42.434Z,6.50
2023-04-15T06:55:11.506Z,6.50
2023-04-15T06:57:39.648Z,6.60
2023-04-15T07:00:11.184Z,6.60
2023-04-15T07:02:41.980Z,6.70
2023-04-15T07:05:10.407Z,6.70
2023-04-15T07:07:42.296Z,6.80
2023-04-15T07:10:13.070Z,6.80
2023-04-15T07:12:41.450Z,6.80
2023-04-15T07:15:12.555Z,6.90
2023-04-15T07:17:40.725Z,6.90
2023-04-15T07:20:10.016Z,6.90
2023-04-15T07:22:38.229Z,6.90
2023-04-15T07:25:09.184Z,7.00
2023-04-15T07:27:37.360Z,7.00
2023-04-15T07:30:06.266Z,7.00
2023-04-15T07:32:34.658Z,7.00
2023-04-15T07:35:03.748Z,7.10
2023-04-15T07:37:32.230Z,7.20
2023-04-15T07:40:00.491Z,7.20
2023-04-15T07:42:30.563Z,7.30
2023-04-15T07:44:58.955Z,7.30
2023-04-15T07:47:27.093Z,7.40
2023-04-15T07:49:55.228Z,7.40
2023-04-15T07:52:25.815Z,7.50
2023-04-15T07:54:53.953Z,7.50
2023-04-15T07:57:22.057Z,7.60
2023-04-15T07:59:51.545Z,7.60
2023-04-15T08:02:22.380Z,7.60
2023-04-15T08:04:50.636Z,7.70
2023-04-15T08:07:19.106Z,7.70
2023-04-15T08:09:47.543Z,7.70
2023-04-15T08:12:15.960Z,7.80
2023-04-15T08:14:47.174Z,7.90
2023-04-15T08:17:16.928Z,7.90
2023-04-15T08:19:48.375Z,8.00
2023-04-15T08:22:18.541Z,8.00
2023-04-15T08:24:47.634Z,8.10
2023-04-15T08:27:15.715Z,8.10
2023-04-15T08:29:45.314Z,8.20
2023-04-15T08:32:13.584Z,8.20
2023-04-15T08:34:43.080Z,8.20
2023-04-15T08:37:13.527Z,8.30
2023-04-15T08:39:45.360Z,8.30
2023-04-15T08:42:18.387Z,8.40
2023-04-15T08:44:48.852Z,8.40
2023-04-15T08:47:22.752Z,8.40
2023-04-15T08:49:56.474Z,8.40
2023-04-15T08:52:27.064Z,8.50
2023-04-15T08:54:59.768Z,8.50
2023-04-15T08:57:29.084Z,8.50
2023-04-15T08:59:57.716Z,8.50
2023-04-15T09:02:27.649Z,8.50
2023-04-15T09:04:57.621Z,8.50
2023-04-15T09:07:26.069Z,8.50
2023-04-15T09:09:54.184Z,8.50
2023-04-15T09:12:24.726Z,8.50
2023-04-15T09:14:52.919Z,8.50
2023-04-15T09:17:22.247Z,8.50
2023-04-15T09:20:11.214Z,8.60
2023-04-15T09:22:40.757Z,8.60
2023-04-15T09:25:27.636Z,8.60
2023-04-15T09:27:57.499Z,8.60
2023-04-15T09:30:29.461Z,8.70
2023-04-15T09:33:02.214Z,8.70
2023-04-15T09:35:33.911Z,8.80
2023-04-15T09:38:05.206Z,8.80
2023-04-15T09:40:35.114Z,8.80
2023-04-15T09:43:03.872Z,8.90
2023-04-15T09:45:33.478Z,8.90
2023-04-15T09:48:17.085Z,8.90
2023-04-15T09:50:46.810Z,8.90
2023-04-15T09:53:18.366Z,9.00
2023-04-15T09:55:52.194Z,9.00
2023-04-15T09:58:24.297Z,9.00
2023-04-15T10:00:53.962Z,9.00
2023-04-15T10:03:25.936Z,9.00
2023-04-15T10:06:01.121Z,9.10
2023-04-15T10:08:31.108Z,9.10
2023-04-15T10:10:59.947Z,9.10
2023-04-15T10:13:32.903Z,9.10
2023-04-15T10:16:02.668Z,9.20
2023-04-15T10:18:36.392Z,9.20
2023-04-15T10:21:07.275Z,9.20
2023-04-15T10:23:35.678Z,9.30
2023-04-15T10:26:07.000Z,9.30
2023-04-15T10:28:37.541Z,9.30
2023-04-15T10:31:07.332Z,9.30
2023-04-15T10:33:36.193Z,9.30
2023-04-15T10:36:07.850Z,9.30
2023-04-15T10:38:37.373Z,9.40
2023-04-15T10:41:18.751Z,9.40
2023-04-15T10:43:53.499Z,9.50
2023-04-15T10:46:23.965Z,9.50
2023-04-15T10:48:53.594Z,9.50
2023-04-15T10:51:33.061Z,9.50
2023-04-15T10:54:01.748Z,9.50
2023-04-15T10:56:31.701Z,9.60
2023-04-15T10:59:02.027Z,9.60
2023-04-15T11:01:52.738Z,9.70
2023-04-15T11:04:58.710Z,9.70
2023-04-15T11:07:39.169Z,9.60
2023-04-15T11:10:48.789Z,9.60
2023-04-15T11:13:18.723Z,9.60
2023-04-15T11:15:48.097Z,9.70
2023-04-15T11:18:17.910Z,9.70
2023-04-15T11:20:50.515Z,9.70
2023-04-15T11:23:28.123Z,9.70
2023-04-15T11:25:59.845Z,9.70
2023-04-15T11:28:32.133Z,9.70
2023-04-15T11:31:06.550Z,9.70
2023-04-15T11:33:34.653Z,9.70
2023-04-15T11:36:03.524Z,9.70
2023-04-15T11:38:35.723Z,9.70
2023-04-15T11:41:03.884Z,9.70
2023-04-15T11:43:35.415Z,9.60
2023-04-15T11:46:05.163Z,9.60
2023-04-15T11:48:37.794Z,9.70
2023-04-15T11:51:07.430Z,9.70
2023-04-15T11:53:42.133Z,9.70
2023-04-15T11:56:11.906Z,9.70
2023-04-15T11:58:40.717Z,9.70
2023-04-15T12:01:11.463Z,9.70
2023-04-15T12:03:41.610Z,9.70
2023-04-15T12:06:18.342Z,9.70
2023-04-15T12:09:01.339Z,9.70
2023-04-15T12:11:32.366Z,9.70
2023-04-15T12:14:04.477Z,9.70
2023-04-15T12:16:36.970Z,9.70
2023-04-15T12:19:23.556Z,9.70
2023-04-15T12:21:52.022Z,9.80
2023-04-15T12:24:23.938Z,9.80
2023-04-15T12:26:57.365Z,9.80
2023-04-15T12:29:28.077Z,9.80
2023-04-15T12:32:00.667Z,9.80
2023-04-15T12:34:30.594Z,9.80
2023-04-15T12:37:01.841Z,9.80
2023-04-15T12:39:33.139Z,9.80
2023-04-15T12:42:01.636Z,9.80
2023-04-15T12:44:30.373Z,9.80
2023-04-15T12:46:58.670Z,9.80
2023-04-15T12:49:27.564Z,9.80
2023-04-15T12:51:57.525Z,9.80
2023-04-15T12:54:25.663Z,9.80
2023-04-15T12:56:55.564Z,9.80
2023-04-15T12:59:24.359Z,9.80
2023-04-15T13:01:53.560Z,9.80
2023-04-15T13:04:23.094Z,9.80
2023-04-15T13:06:51.838Z,9.80
2023-04-15T13:09:20.006Z,9.80
2023-04-15T13:11:48.178Z,9.80
2023-04-15T13:14:19.785Z,9.80
2023-04-15T13:16:47.868Z,9.80
2023-04-15T13:19:16.013Z,9.70
2023-04-15T13:21:44.197Z,9.70
2023-04-15T13:24:12.520Z,9.70
2023-04-15T13:26:40.623Z,9.70
2023-04-15T13:29:08.787Z,9.70
2023-04-15T13:31:38.327Z,9.70
2023-04-15T13:34:08.737Z,9.70
2023-04-15T13:36:38.942Z,9.70
2023-04-15T13:39:07.108Z,9.70
2023-04-15T13:41:38.339Z,9.70
2023-04-15T13:44:07.215Z,9.70
2023-04-15T13:46:40.483Z,9.70
2023-04-15T13:49:11.231Z,9.70
2023-04-15T13:51:41.776Z,9.60
2023-04-15T13:54:09.937Z,9.60
2023-04-15T13:56:38.011Z,9.60
2023-04-15T13:59:06.761Z,9.60
2023-04-15T14:01:35.694Z,9.60
2023-04-15T14:04:08.046Z,9.60
2023-04-15T14:06:36.426Z,9.60
2023-04-15T14:09:05.069Z,9.50
2023-04-15T14:11:35.372Z,9.50
2023-04-15T14:14:03.804Z,9.50
2023-04-15T14:16:34.098Z,9.40
2023-04-15T14:19:03.209Z,9.40
2023-04-15T14:21:33.627Z,9.40
2023-04-15T14:24:01.773Z,9.40
2023-04-15T14:26:29.880Z,9.40
2023-04-15T14:28:57.999Z,9.40
2023-04-15T14:31:26.186Z,9.40
2023-04-15T14:33:54.401Z,9.30
2023-04-15T14:36:22.666Z,9.30
2023-04-15T14:38:52.205Z,9.30
2023-04-15T14:41:22.450Z,9.30
2023-04-15T14:43:50.783Z,9.20
2023-04-15T14:46:19.054Z,9.20
2023-04-15T14:48:50.797Z,9.20
2023-04-15T14:51:18.971Z,9.20
2023-04-15T14:53:47.185Z,9.20
2023-04-15T14:56:16.856Z,9.20
2023-04-15T14:58:44.967Z,9.20
2023-04-15T15:01:13.415Z,9.20
2023-04-15T15:03:41.827Z,9.20
2023-04-15T15:06:10.100Z,9.20
2023-04-15T15:08:40.826Z,9.20
2023-04-15T15:11:09.009Z,9.20
2023-04-15T15:13:38.676Z,9.20
2023-04-15T15:16:11.860Z,9.10
2023-04-15T15:18:41.283Z,9.10
2023-04-15T15:21:09.407Z,9.10
2023-04-15T15:23:37.565Z,9.10
2023-04-15T15:26:06.899Z,9.10
2023-04-15T15:28:38.629Z,9.10
2023-04-15T15:31:06.886Z,9.10
2023-04-15T15:33:37.574Z,9.00
2023-04-15T15:36:06.033Z,9.00
2023-04-15T15:38:34.224Z,9.00
2023-04-15T15:41:02.324Z,9.00
2023-04-15T15:43:30.760Z,8.90
2023-04-15T15:46:00.336Z,8.90
2023-04-15T15:48:30.612Z,8.90
2023-04-15T15:50:58.837Z,8.90
2023-04-15T15:53:27.002Z,8.90
2023-04-15T15:55:55.232Z,8.90
2023-04-15T15:58:25.417Z,8.90
2023-04-15T16:00:53.562Z,8.90
2023-04-15T16:03:24.193Z,8.90
2023-04-15T16:05:52.419Z,8.80
2023-04-15T16:08:20.828Z,8.80
2023-04-15T16:10:49.012Z,8.80
2023-04-15T16:13:17.207Z,8.80
2023-04-15T16:15:45.430Z,8.80
2023-04-15T16:18:13.543Z,8.80
2023-04-15T16:20:45.905Z,8.80
2023-04-15T16:23:15.312Z,8.80
2023-04-15T16:25:44.743Z,8.90
2023-04-15T16:28:25.832Z,8.80
2023-04-15T16:30:56.001Z,8.80
2023-04-15T16:33:26.610Z,8.80
2023-04-15T16:35:56.080Z,8.80
2023-04-15T16:38:24.193Z,8.80
2023-04-15T16:40:52.674Z,8.80
2023-04-15T16:43:20.957Z,8.80
2023-04-15T16:45:51.066Z,8.80
2023-04-15T16:48:19.946Z,8.80
2023-04-15T16:50:48.860Z,8.80
2023-04-15T16:53:18.679Z,8.80
2023-04-15T16:55:46.757Z,8.80
2023-04-15T16:58:15.027Z,8.80
2023-04-15T17:00:43.259Z,8.80
2023-04-15T17:03:11.546Z,8.80
2023-04-15T17:05:39.765Z,8.80
2023-04-15T17:08:08.413Z,8.80
2023-04-15T17:10:37.934Z,8.80
2023-04-15T17:13:08.666Z,8.80
2023-04-15T17:15:36.824Z,8.80
2023-04-15T17:18:05.801Z,8.80
2023-04-15T17:20:36.191Z,8.80
2023-04-15T17:23:06.946Z,8.70
2023-04-15T17:25:35.073Z,8.70
2023-04-15T17:28:04.528Z,8.70
2023-04-15T17:30:33.862Z,8.70
2023-04-15T17:33:02.529Z,8.80
2023-04-15T17:35:53.036Z,8.70
2023-04-15T17:38:21.123Z,8.70
2023-04-15T17:40:49.484Z,8.70
2023-04-15T17:43:21.238Z,8.70
2023-04-15T17:45:49.452Z,8.70
2023-04-15T17:48:17.568Z,8.70
2023-04-15T17:50:48.906Z,8.70
2023-04-15T17:53:18.641Z,8.70
2023-04-15T17:55:47.317Z,8.70
2023-04-15T17:58:15.443Z,8.70
2023-04-15T18:00:44.909Z,8.70
2023-04-15T18:03:15.890Z,8.70
2023-04-15T18:05:46.538Z,8.70
2023-04-15T18:08:14.750Z,8.70
2023-04-15T18:10:42.818Z,8.70
2023-04-15T18:13:13.002Z,8.70
2023-04-15T18:15:41.166Z,8.70
2023-04-15T18:18:10.673Z,8.70
2023-04-15T18:20:38.797Z,8.70
2023-04-15T18:23:07.224Z,8.70
2023-04-15T18:25:35.371Z,8.70
2023-04-15T18:28:06.400Z,8.70
2023-04-15T18:30:36.857Z,8.70
2023-04-15T18:33:05.225Z,8.70
2023-04-15T18:35:36.610Z,8.70
2023-04-15T18:38:04.843Z,8.70
2023-04-15T18:40:32.939Z,8.70
2023-04-15T18:43:01.215Z,8.70
2023-04-15T18:45:29.374Z,8.70
2023-04-15T18:47:57.874Z,8.70
2023-04-15T18:50:26.037Z,8.70
2023-04-15T18:52:58.172Z,8.70
2023-04-15T18:55:28.456Z,8.70
2023-04-15T18:57:56.847Z,8.70
2023-04-15T19:00:40.670Z,8.70
2023-04-15T19:03:09.290Z,8.70
2023-04-15T19:05:37.705Z,8.70
2023-04-15T19:08:07.470Z,8.70
2023-04-15T19:10:38.235Z,8.70
2023-04-15T19:13:08.853Z,8.70
2023-04-15T19:15:36.945Z,8.70
2023-04-15T19:18:10.383Z,8.70
2023-04-15T19:20:41.737Z,8.70
2023-04-15T19:23:11.820Z,8.80
2023-04-15T19:25:39.997Z,8.80
2023-04-15T19:28:08.157Z,8.80
2023-04-15T19:30:36.458Z,8.80
2023-04-15T19:33:04.658Z,8.80
2023-04-15T19:35:35.206Z,8.80
2023-04-15T19:38:06.782Z,8.70
2023-04-15T19:40:36.266Z,8.70
2023-04-15T19:43:07.696Z,8.70
2023-04-15T19:45:36.403Z,8.80
2023-04-15T19:48:06.108Z,8.80
2023-04-15T19:50:34.791Z,8.80
2023-04-15T19:53:05.192Z,8.80
2023-04-15T19:55:37.083Z,8.80
2023-04-15T19:58:07.412Z,8.80
2023-04-15T20:00:35.548Z,8.80
2023-04-15T20:03:03.971Z,8.80
2023-04-15T20:05:32.305Z,8.80
2023-04-15T20:08:01.846Z,8.80
2023-04-15T20:10:32.436Z,8.70
2023-04-15T20:13:02.415Z,8.70
2023-04-15T20:15:30.839Z,8.70
2023-04-15T20:17:59.076Z,8.70
2023-04-15T20:20:27.322Z,8.70
2023-04-15T20:22:55.501Z,8.70
2023-04-15T20:25:26.243Z,8.70
2023-04-15T20:27:54.370Z,8.70
2023-04-15T20:30:23.940Z,8.70
2023-04-15T20:32:52.165Z,8.70
2023-04-15T20:35:20.870Z,8.70
2023-04-15T20:37:50.011Z,8.70
2023-04-15T20:40:18.431Z,8.70
2023-04-15T20:42:52.234Z,8.70
2023-04-15T20:45:23.809Z,8.60
2023-04-15T20:47:54.771Z,8.70
2023-04-15T20:50:23.078Z,8.60
2023-04-15T20:52:51.296Z,8.60
2023-04-15T20:55:19.617Z,8.70
2023-04-15T20:57:48.483Z,8.70
2023-04-15T21:00:16.911Z,8.70
2023-04-15T21:02:48.841Z,8.70
2023-04-15T21:05:17.639Z,8.70
2023-04-15T21:07:45.920Z,8.70
2023-04-15T21:10:14.063Z,8.70
2023-04-15T21:12:42.565Z,8.70
2023-04-15T21:15:11.659Z,8.70
2023-04-15T21:17:41.577Z,8.70
2023-04-15T21:20:12.636Z,8.70
2023-04-15T21:22:41.224Z,8.70
2023-04-15T21:25:10.331Z,8.70
2023-04-15T21:27:40.851Z,8.70
2023-04-15T21:30:09.889Z,8.70
2023-04-15T21:32:38.110Z,8.70
2023-04-15T21:35:07.396Z,8.70
2023-04-15T21:37:37.534Z,8.70
2023-04-15T21:40:07.232Z,8.70
2023-04-15T21:42:35.338Z,8.70
2023-04-15T21:45:03.415Z,8.70
2023-04-15T21:47:31.666Z,8.70
2023-04-15T21:50:19.862Z,8.70
2023-04-15T21:52:49.424Z,8.70
2023-04-15T21:55:18.103Z,8.70
2023-04-15T21:57:49.312Z,8.70
2023-04-15T22:00:17.942Z,8.70
2023-04-15T22:02:46.145Z,8.70
2023-04-15T22:05:14.325Z,8.70
2023-04-15T22:07:42.504Z,8.70
2023-04-15T22:10:12.449Z,8.80
2023-04-15T22:12:42.242Z,8.80
2023-04-15T22:15:10.958Z,8.80
2023-04-15T22:17:41.241Z,8.70
2023-04-15T22:20:10.829Z,8.70
2023-04-15T22:22:44.111Z,8.70
2023-04-15T22:25:14.371Z,8.70
2023-04-15T22:27:42.589Z,8.70
2023-04-15T22:30:12.027Z,8.70
2023-04-15T22:32:40.179Z,8.70
2023-04-15T22:35:09.030Z,8.80
2023-04-15T22:37:40.192Z,8.80
2023-04-15T22:40:09.278Z,8.80
2023-04-15T22:42:38.777Z,8.80
2023-04-15T22:45:08.421Z,8.80
2023-04-15T22:47:38.822Z,8.80
2023-04-15T22:50:08.474Z,8.80
2023-04-15T22:52:36.852Z,8.80
2023-04-15T22:55:05.276Z,8.80
2023-04-15T22:57:33.484Z,8.80
2023-04-15T23:00:03.020Z,8.80
2023-04-15T23:02:31.272Z,8.80
2023-04-15T23:04:59.533Z,8.80
2023-04-15T23:07:30.349Z,8.80
2023-04-15T23:10:00.266Z,8.80
2023-04-15T23:12:28.529Z,8.80
2023-04-15T23:14:56.578Z,8.80
2023-04-15T23:17:26.784Z,8.80
2023-04-15T23:19:54.960Z,8.80
2023-04-15T23:22:23.158Z,8.80
2023-04-15T23:24:53.863Z,8.80
2023-04-15T23:27:22.843Z,8.80
2023-04-15T23:29:50.928Z,8.80
2023-04-15T23:32:19.053Z,8.80
2023-04-15T23:34:48.517Z,8.80
2023-04-15T23:37:18.998Z,8.80
2023-04-15T23:39:49.181Z,8.90
2023-04-15T23:42:17.260Z,8.80
2023-04-15T23:44:45.378Z,8.80
2023-04-15T23:47:13.499Z,8.80
2023-04-15T23:49:41.707Z,8.80
2023-04-15T23:52:11.589Z,8.80
2023-04-15T23:54:39.709Z,8.80
2023-04-15T23:57:10.397Z,8.80
2023-04-15T23:59:40.764Z,8.80
